Time;durP1;ratioP1;P1;durP2;ratioP2;P2;SDS_P1;SDS_P2;PMS_P1;PMS_P2;Temp;Humidity;BMP_temperature;BMP_pressure;BME280_temperature;BME280_humidity;BME280_pressure;Samples;Min_cycle;Max_cycle;Signal;HPM_P1;HPM_P2
2022/05/04 00:02:23;;;;;;;11.57;4.85;;;;;;;;;;5014769;28;20037;-65
2022/05/04 00:04:49;;;;;;;7.25;4.50;;;;;;;;;;5012139;28;20065;-64
2022/05/04 00:07:14;;;;;;;10.60;4.72;;;;;;;;;;5013309;28;20029;-64
2022/05/04 00:09:39;;;;;;;12.70;4.80;;;;;;;;;;5009497;28;20027;-64
2022/05/04 00:12:05;;;;;;;11.73;4.57;;;;;;;;;;5013275;28;20462;-65
2022/05/04 00:14:31;;;;;;;11.23;5.05;;;;;;;;;;5014041;28;20041;-64
2022/05/04 00:16:56;;;;;;;8.75;4.93;;;;;;;;;;5014374;28;20038;-64
2022/05/04 00:19:21;;;;;;;12.50;4.70;;;;;;;;;;5011706;28;20029;-64
2022/05/04 00:21:47;;;;;;;11.25;4.68;;;;;;;;;;5010984;28;20084;-64
2022/05/04 00:24:12;;;;;;;10.07;5.00;;;;;;;;;;5013089;28;20037;-64
2022/05/04 00:26:37;;;;;;;10.25;4.50;;;;;;;;;;5012855;28;20500;-64
2022/05/04 00:29:03;;;;;;;10.68;4.70;;;;;;;;;;5014505;28;20462;-63
2022/05/04 00:31:28;;;;;;;10.88;4.72;;;;;;;;;;5012230;28;20033;-64
2022/05/04 00:33:54;;;;;;;11.32;4.70;;;;;;;;;;5012156;28;20045;-64
2022/05/04 00:36:19;;;;;;;11.88;5.00;;;;;;;;;;5011416;28;20033;-64
2022/05/04 00:38:44;;;;;;;9.93;4.82;;;;;;;;;;5012773;28;20034;-63
2022/05/04 00:41:10;;;;;;;10.80;4.20;;;;;;;;;;5014796;28;20053;-62
2022/05/04 00:43:35;;;;;;;9.18;5.10;;;;;;;;;;5013403;28;20034;-64
2022/05/04 00:46:01;;;;;;;16.58;4.97;;;;;;;;;;5004795;28;20048;-63
2022/05/04 00:48:26;;;;;;;13.35;5.15;;;;;;;;;;5012281;28;20037;-64
2022/05/04 00:50:53;;;;;;;10.90;4.90;;;;;;;;;;5012459;28;20504;-64
2022/05/04 00:53:19;;;;;;;12.02;4.88;;;;;;;;;;5011796;28;20517;-64
2022/05/04 00:55:45;;;;;;;10.60;5.07;;;;;;;;;;5011639;28;20612;-64
2022/05/04 01:00:59;;;;;;;11.10;4.75;;;;;;;;;;4994824;28;20113;-64
2022/05/04 01:03:24;;;;;;;10.80;4.70;;;;;;;;;;4998924;28;20026;-65
2022/05/04 01:05:50;;;;;;;12.13;4.78;;;;;;;;;;5012279;28;20389;-63
2022/05/04 01:08:15;;;;;;;10.23;4.63;;;;;;;;;;5012886;28;20441;-63
2022/05/04 01:10:41;;;;;;;10.52;4.95;;;;;;;;;;5012968;28;20030;-63
2022/05/04 01:13:06;;;;;;;9.90;4.80;;;;;;;;;;5013007;28;20402;-63
2022/05/04 01:15:31;;;;;;;13.32;4.78;;;;;;;;;;5012605;28;20104;-64
2022/05/04 01:17:57;;;;;;;12.40;4.85;;;;;;;;;;5009498;28;20479;-64
2022/05/04 01:20:24;;;;;;;11.63;4.75;;;;;;;;;;5014431;28;20113;-64
2022/05/04 01:22:50;;;;;;;10.00;4.80;;;;;;;;;;5011418;28;20061;-63
2022/05/04 01:25:16;;;;;;;14.60;4.80;;;;;;;;;;5013297;28;20140;-62
2022/05/04 01:27:41;;;;;;;10.45;4.60;;;;;;;;;;5009956;28;20025;-64
2022/05/04 01:30:07;;;;;;;9.52;4.97;;;;;;;;;;5014138;28;20496;-63
2022/05/04 01:32:33;;;;;;;11.70;5.35;;;;;;;;;;5011178;28;20100;-64
2022/05/04 01:34:59;;;;;;;11.13;4.95;;;;;;;;;;4996551;28;20409;-62
2022/05/04 01:37:25;;;;;;;12.73;4.70;;;;;;;;;;5011889;28;20116;-63
2022/05/04 01:39:50;;;;;;;10.85;4.88;;;;;;;;;;5010853;28;20037;-63
2022/05/04 01:42:23;;;;;;;12.85;4.72;;;;;;;;;;5011913;28;20129;-64
2022/05/04 01:44:49;;;;;;;14.18;5.03;;;;;;;;;;5012197;28;20761;-63
2022/05/04 01:47:14;;;;;;;11.82;4.95;;;;;;;;;;5004233;28;20029;-64
2022/05/04 01:49:40;;;;;;;11.10;4.90;;;;;;;;;;5002297;28;20401;-63
2022/05/04 01:52:06;;;;;;;11.15;4.97;;;;;;;;;;4995727;28;20372;-63
2022/05/04 01:54:32;;;;;;;13.63;5.40;;;;;;;;;;4993251;28;20109;-64
2022/05/04 01:56:57;;;;;;;13.07;4.97;;;;;;;;;;5007266;28;20112;-63
2022/05/04 01:59:22;;;;;;;9.32;5.15;;;;;;;;;;5012706;28;20030;-63
2022/05/04 02:01:48;;;;;;;12.73;4.95;;;;;;;;;;4992435;28;20608;-64
2022/05/04 02:04:14;;;;;;;12.48;4.95;;;;;;;;;;4995922;28;20604;-63
2022/05/04 02:06:39;;;;;;;10.75;5.63;;;;;;;;;;4998316;28;20493;-64
2022/05/04 02:09:06;;;;;;;11.68;4.65;;;;;;;;;;4993859;28;20030;-64
2022/05/04 02:11:32;;;;;;;12.18;4.88;;;;;;;;;;4999459;28;20561;-63
2022/05/04 02:13:59;;;;;;;13.10;5.55;;;;;;;;;;5010895;28;20397;-63
2022/05/04 02:16:24;;;;;;;11.20;5.60;;;;;;;;;;5010056;28;20044;-63
2022/05/04 02:18:50;;;;;;;10.18;4.97;;;;;;;;;;5012158;28;20608;-64
2022/05/04 02:21:16;;;;;;;9.95;5.10;;;;;;;;;;5008854;28;20470;-63
2022/05/04 02:23:42;;;;;;;8.85;4.85;;;;;;;;;;5012197;28;20048;-65
2022/05/04 02:26:07;;;;;;;11.30;5.35;;;;;;;;;;4999200;28;20458;-63
2022/05/04 02:28:32;;;;;;;9.98;4.72;;;;;;;;;;4992925;28;20034;-64
2022/05/04 02:30:58;;;;;;;12.63;4.70;;;;;;;;;;5005520;28;20037;-64
2022/05/04 02:33:23;;;;;;;13.07;5.43;;;;;;;;;;5011947;28;20507;-63
2022/05/04 02:38:33;;;;;;;13.30;5.30;;;;;;;;;;5009184;28;20036;-64
2022/05/04 02:40:58;;;;;;;13.23;5.85;;;;;;;;;;5012286;28;20053;-63
2022/05/04 02:43:25;;;;;;;13.27;5.05;;;;;;;;;;5012098;28;20030;-63
2022/05/04 02:45:50;;;;;;;13.63;5.43;;;;;;;;;;5010838;28;20034;-64
2022/05/04 02:48:16;;;;;;;11.60;5.32;;;;;;;;;;5010836;28;20041;-64
2022/05/04 02:50:41;;;;;;;11.13;5.60;;;;;;;;;;5011466;28;20030;-63
2022/05/04 02:53:07;;;;;;;14.10;5.53;;;;;;;;;;5009726;28;20044;-63
2022/05/04 02:55:32;;;;;;;15.10;5.78;;;;;;;;;;5005761;28;20414;-63
2022/05/04 02:57:58;;;;;;;13.30;5.60;;;;;;;;;;4999529;28;20037;-63
2022/05/04 03:00:25;;;;;;;9.65;5.13;;;;;;;;;;5007844;28;20084;-62
2022/05/04 03:02:50;;;;;;;14.95;5.32;;;;;;;;;;5010371;28;20033;-63
2022/05/04 03:05:17;;;;;;;14.63;5.00;;;;;;;;;;5010269;28;20044;-63
2022/05/04 03:07:43;;;;;;;12.32;5.70;;;;;;;;;;5010830;28;20041;-64
2022/05/04 03:10:09;;;;;;;13.48;5.47;;;;;;;;;;5011245;28;20034;-63
2022/05/04 03:12:35;;;;;;;12.65;5.63;;;;;;;;;;5011468;28;20032;-64
2022/05/04 03:15:01;;;;;;;15.13;5.70;;;;;;;;;;4995910;28;20034;-63
2022/05/04 03:17:26;;;;;;;11.45;5.70;;;;;;;;;;4992726;28;20101;-64
2022/05/04 03:19:52;;;;;;;15.95;5.68;;;;;;;;;;5008882;28;20091;-63
2022/05/04 03:22:18;;;;;;;17.65;5.65;;;;;;;;;;5012062;28;20461;-63
2022/05/04 03:24:43;;;;;;;16.67;6.03;;;;;;;;;;5008277;28;20080;-63
2022/05/04 03:27:09;;;;;;;18.05;5.88;;;;;;;;;;5004824;28;20034;-63
2022/05/04 03:29:34;;;;;;;13.43;6.80;;;;;;;;;;5003263;28;20034;-63
2022/05/04 03:32:00;;;;;;;13.90;5.60;;;;;;;;;;5010370;28;20389;-70
2022/05/04 03:34:26;;;;;;;16.85;5.60;;;;;;;;;;5008097;28;20038;-67
2022/05/04 03:36:51;;;;;;;16.35;5.95;;;;;;;;;;4998974;28;20030;-68
2022/05/04 03:39:17;;;;;;;14.30;5.68;;;;;;;;;;4994214;28;20045;-69
2022/05/04 03:41:44;;;;;;;14.23;5.75;;;;;;;;;;4992994;28;20129;-67
2022/05/04 03:44:09;;;;;;;13.65;5.78;;;;;;;;;;5011365;28;20030;-68
2022/05/04 03:46:52;;;;;;;13.68;5.47;;;;;;;;;;5009668;28;20041;-67
2022/05/04 03:49:19;;;;;;;12.38;5.60;;;;;;;;;;5011758;28;20053;-68
2022/05/04 03:51:45;;;;;;;14.07;5.97;;;;;;;;;;5010063;28;20041;-66
2022/05/04 03:54:11;;;;;;;13.10;6.13;;;;;;;;;;5011893;28;20037;-68
2022/05/04 03:56:37;;;;;;;12.75;5.68;;;;;;;;;;4992313;28;20113;-67
2022/05/04 03:59:04;;;;;;;14.13;6.40;;;;;;;;;;4974862;28;20037;-69
2022/05/04 04:01:29;;;;;;;15.18;6.00;;;;;;;;;;4992229;28;20117;-69
2022/05/04 04:03:55;;;;;;;15.40;6.20;;;;;;;;;;4993309;28;20137;-68
2022/05/04 04:06:20;;;;;;;15.73;6.28;;;;;;;;;;5005871;28;20023;-69
2022/05/04 04:08:45;;;;;;;15.02;6.47;;;;;;;;;;5009244;28;20033;-68
2022/05/04 04:11:11;;;;;;;13.70;6.22;;;;;;;;;;4993993;28;20512;-70
2022/05/04 04:13:37;;;;;;;16.10;6.40;;;;;;;;;;5000014;28;20042;-68
2022/05/04 04:16:04;;;;;;;17.08;6.70;;;;;;;;;;5008927;28;20034;-69
2022/05/04 04:18:30;;;;;;;15.15;6.82;;;;;;;;;;5011839;28;20088;-70
2022/05/04 04:23:40;;;;;;;13.82;6.10;;;;;;;;;;5009768;28;20072;-68
2022/05/04 04:26:07;;;;;;;16.00;6.32;;;;;;;;;;5010924;28;20030;-67
2022/05/04 04:28:34;;;;;;;16.98;6.68;;;;;;;;;;5011747;28;20133;-69
2022/05/04 04:31:00;;;;;;;14.70;6.18;;;;;;;;;;4993169;28;20065;-67
2022/05/04 04:33:26;;;;;;;15.07;5.80;;;;;;;;;;5010832;28;20038;-67
2022/05/04 04:35:56;;;;;;;15.45;6.75;;;;;;;;;;5009777;28;20470;-67
2022/05/04 04:38:21;;;;;;;16.25;6.65;;;;;;;;;;5009502;28;20042;-69
2022/05/04 04:40:47;;;;;;;14.52;6.13;;;;;;;;;;5010848;28;20072;-67
2022/05/04 04:43:14;;;;;;;14.73;6.32;;;;;;;;;;5012241;28;20108;-68
2022/05/04 04:45:40;;;;;;;12.57;6.13;;;;;;;;;;5013847;28;20113;-68
2022/05/04 04:48:06;;;;;;;20.02;6.28;;;;;;;;;;5013984;28;20108;-68
2022/05/04 04:50:31;;;;;;;16.63;6.13;;;;;;;;;;5015318;28;20037;-68
2022/05/04 04:52:56;;;;;;;15.38;6.15;;;;;;;;;;5012120;28;20125;-68
2022/05/04 04:55:22;;;;;;;21.02;6.45;;;;;;;;;;5014748;28;20386;-67
2022/05/04 04:57:47;;;;;;;24.67;6.65;;;;;;;;;;5013987;28;20065;-68
2022/05/04 05:00:14;;;;;;;14.52;5.75;;;;;;;;;;5013879;28;20112;-69
2022/05/04 05:02:40;;;;;;;16.45;5.78;;;;;;;;;;5013459;28;20038;-69
2022/05/04 05:05:06;;;;;;;12.63;5.82;;;;;;;;;;5014648;28;20030;-69
2022/05/04 05:07:32;;;;;;;16.55;6.15;;;;;;;;;;5014167;28;20053;-69
2022/05/04 05:09:57;;;;;;;15.63;6.20;;;;;;;;;;5013023;28;20481;-68
2022/05/04 05:12:23;;;;;;;13.48;6.15;;;;;;;;;;5013920;28;20422;-70
2022/05/04 05:17:33;;;;;;;13.70;5.50;;;;;;;;;;5013374;28;20468;-69
2022/05/04 05:19:59;;;;;;;18.13;5.95;;;;;;;;;;5012415;28;20563;-68
2022/05/04 05:22:24;;;;;;;16.67;6.07;;;;;;;;;;5013681;28;20028;-68
2022/05/04 05:24:50;;;;;;;13.40;5.90;;;;;;;;;;5013637;28;20030;-68
2022/05/04 05:27:15;;;;;;;18.10;6.53;;;;;;;;;;5014512;28;20034;-68
2022/05/04 05:29:41;;;;;;;14.60;5.80;;;;;;;;;;5013875;28;20026;-67
2022/05/04 05:32:06;;;;;;;14.60;6.07;;;;;;;;;;4996296;28;20026;-69
2022/05/04 05:34:33;;;;;;;13.93;6.03;;;;;;;;;;5014320;28;20397;-70
2022/05/04 05:37:00;;;;;;;14.55;6.00;;;;;;;;;;5013256;28;20041;-68
2022/05/04 05:39:25;;;;;;;16.80;6.05;;;;;;;;;;5013366;28;20034;-69
2022/05/04 05:41:51;;;;;;;14.48;6.07;;;;;;;;;;5011457;28;20064;-68
2022/05/04 05:44:17;;;;;;;13.02;6.10;;;;;;;;;;4995123;28;20044;-68
2022/05/04 05:46:42;;;;;;;19.90;6.68;;;;;;;;;;5010145;28;20510;-68
2022/05/04 05:49:08;;;;;;;16.17;5.93;;;;;;;;;;5013693;28;20541;-68
2022/05/04 05:51:33;;;;;;;15.20;5.43;;;;;;;;;;5013427;28;20026;-68
2022/05/04 05:53:58;;;;;;;14.75;5.85;;;;;;;;;;5011834;28;20034;-69
2022/05/04 05:56:24;;;;;;;16.10;5.60;;;;;;;;;;5012244;28;20110;-69
2022/05/04 05:58:49;;;;;;;17.75;5.72;;;;;;;;;;4996165;28;20425;-70
2022/05/04 06:01:14;;;;;;;14.15;5.82;;;;;;;;;;4993968;28;20065;-69
2022/05/04 06:03:40;;;;;;;17.65;6.30;;;;;;;;;;5013357;28;20060;-68
2022/05/04 06:06:05;;;;;;;17.20;5.93;;;;;;;;;;5009844;28;20422;-69
2022/05/04 06:08:31;;;;;;;16.20;5.75;;;;;;;;;;4993974;28;20026;-68
2022/05/04 06:10:56;;;;;;;13.63;5.97;;;;;;;;;;5001027;28;20033;-67
2022/05/04 06:13:21;;;;;;;17.05;5.55;;;;;;;;;;5012316;28;20537;-69
2022/05/04 06:15:47;;;;;;;14.07;5.68;;;;;;;;;;5012222;28;20033;-68
2022/05/04 06:18:12;;;;;;;12.43;6.07;;;;;;;;;;5013066;28;20041;-67
2022/05/04 06:20:38;;;;;;;14.48;6.03;;;;;;;;;;5012905;28;20474;-68
2022/05/04 06:23:04;;;;;;;18.60;5.82;;;;;;;;;;5012391;28;20025;-67
2022/05/04 06:25:30;;;;;;;15.60;5.85;;;;;;;;;;4993863;28;20137;-69
2022/05/04 06:27:55;;;;;;;16.83;5.97;;;;;;;;;;5011279;28;20537;-68
2022/05/04 06:35:56;;;;;;;16.15;5.38;;;;;;;;;;5011369;28;20122;-68
2022/05/04 06:38:22;;;;;;;13.18;6.10;;;;;;;;;;4994185;28;20136;-68
2022/05/04 06:40:47;;;;;;;16.80;5.97;;;;;;;;;;5011061;28;20478;-68
2022/05/04 06:43:13;;;;;;;12.05;5.15;;;;;;;;;;5012242;28;20026;-67
2022/05/04 06:45:38;;;;;;;13.13;5.80;;;;;;;;;;5008725;28;22111;-68
2022/05/04 06:48:04;;;;;;;15.15;5.80;;;;;;;;;;5011773;28;20026;-67
2022/05/04 06:50:30;;;;;;;13.43;5.93;;;;;;;;;;5012821;28;20025;-67
2022/05/04 06:52:56;;;;;;;13.98;6.22;;;;;;;;;;5011635;28;20386;-68
2022/05/04 06:55:21;;;;;;;12.90;5.95;;;;;;;;;;5012457;28;20030;-67
2022/05/04 06:57:47;;;;;;;15.10;5.68;;;;;;;;;;5011371;28;20044;-67
2022/05/04 07:00:13;;;;;;;13.80;5.78;;;;;;;;;;5012458;28;20459;-67
2022/05/04 07:02:38;;;;;;;12.98;6.25;;;;;;;;;;5012361;28;20059;-68
2022/05/04 07:05:05;;;;;;;12.90;5.93;;;;;;;;;;5008997;28;20911;-68
2022/05/04 07:07:31;;;;;;;13.63;5.88;;;;;;;;;;5012514;28;20050;-68
2022/05/04 07:09:57;;;;;;;12.95;6.38;;;;;;;;;;5011604;28;20030;-69
2022/05/04 07:12:22;;;;;;;16.35;6.15;;;;;;;;;;5011978;28;20030;-68
2022/05/04 07:14:48;;;;;;;18.65;6.00;;;;;;;;;;5009958;28;20025;-67
2022/05/04 07:17:13;;;;;;;18.90;6.65;;;;;;;;;;5011116;28;20026;-67
2022/05/04 07:19:39;;;;;;;14.13;6.22;;;;;;;;;;5012067;28;20032;-68
2022/05/04 07:22:04;;;;;;;14.57;6.32;;;;;;;;;;5010214;28;20034;-67
2022/05/04 07:24:31;;;;;;;15.88;6.78;;;;;;;;;;5010374;28;20137;-68
2022/05/04 07:26:56;;;;;;;15.65;6.97;;;;;;;;;;5008963;28;20109;-68
2022/05/04 07:29:22;;;;;;;14.73;6.80;;;;;;;;;;5011934;28;20026;-68
2022/05/04 07:31:47;;;;;;;18.38;7.63;;;;;;;;;;5010551;28;20088;-67
2022/05/04 07:34:14;;;;;;;14.70;7.68;;;;;;;;;;5010859;28;20048;-67
2022/05/04 07:36:39;;;;;;;17.55;7.03;;;;;;;;;;5009857;28;20030;-69
2022/05/04 07:39:05;;;;;;;15.98;7.50;;;;;;;;;;5010333;28;20042;-68
2022/05/04 07:44:14;;;;;;;18.95;7.57;;;;;;;;;;5009740;28;20108;-68
2022/05/04 07:46:41;;;;;;;14.45;7.00;;;;;;;;;;5011169;28;20034;-70
2022/05/04 07:49:07;;;;;;;20.17;7.63;;;;;;;;;;5010339;28;20266;-67
2022/05/04 07:51:33;;;;;;;16.42;7.60;;;;;;;;;;5012059;28;20067;-69
2022/05/04 07:53:58;;;;;;;15.20;7.85;;;;;;;;;;5009991;28;20057;-67
2022/05/04 07:56:23;;;;;;;14.77;7.32;;;;;;;;;;5011975;28;20022;-67
2022/05/04 07:58:49;;;;;;;18.38;8.25;;;;;;;;;;4992376;28;20042;-67
2022/05/04 08:04:16;;;;;;;16.50;8.20;;;;;;;;;;5009177;28;20064;-67
2022/05/04 08:06:42;;;;;;;20.08;7.32;;;;;;;;;;5011965;28;20030;-67
2022/05/04 08:09:07;;;;;;;15.38;7.30;;;;;;;;;;4994985;28;20243;-69
2022/05/04 08:11:33;;;;;;;18.17;7.75;;;;;;;;;;4992223;28;20027;-68
2022/05/04 08:13:58;;;;;;;15.70;8.23;;;;;;;;;;5004715;28;20049;-68
2022/05/04 08:16:23;;;;;;;19.05;7.95;;;;;;;;;;5012792;28;20359;-68
2022/05/04 08:18:49;;;;;;;15.52;8.10;;;;;;;;;;5014959;28;20040;-67
2022/05/04 08:21:14;;;;;;;13.88;7.50;;;;;;;;;;5014108;28;20030;-68
2022/05/04 08:23:40;;;;;;;16.98;7.70;;;;;;;;;;5005243;28;20092;-68
2022/05/04 08:26:06;;;;;;;14.48;7.93;;;;;;;;;;4995383;28;20088;-68
2022/05/04 08:28:31;;;;;;;20.40;8.23;;;;;;;;;;4995922;28;20026;-68
2022/05/04 08:30:56;;;;;;;14.82;7.82;;;;;;;;;;4994670;28;20034;-68
2022/05/04 08:33:22;;;;;;;19.02;8.18;;;;;;;;;;5003258;28;20046;-68
2022/05/04 08:35:47;;;;;;;17.10;7.82;;;;;;;;;;5012448;28;20037;-67
2022/05/04 08:38:13;;;;;;;18.85;8.18;;;;;;;;;;5012329;28;20037;-67
2022/05/04 08:40:41;;;;;;;15.77;8.13;;;;;;;;;;5014769;28;20030;-67
2022/05/04 08:43:08;;;;;;;17.08;7.55;;;;;;;;;;5011629;28;20056;-67
2022/05/04 08:45:40;;;;;;;18.27;8.18;;;;;;;;;;5014798;28;20030;-68
2022/05/04 08:48:08;;;;;;;14.60;8.13;;;;;;;;;;5013565;28;20115;-68
2022/05/04 08:50:35;;;;;;;16.27;8.15;;;;;;;;;;4999911;28;20453;-68
2022/05/04 08:53:05;;;;;;;15.40;8.00;;;;;;;;;;5009427;28;20480;-67
2022/05/04 08:55:30;;;;;;;24.40;9.15;;;;;;;;;;4995402;28;20120;-68
2022/05/04 08:57:55;;;;;;;14.48;8.63;;;;;;;;;;4994235;28;20439;-66
2022/05/04 09:00:21;;;;;;;15.20;7.78;;;;;;;;;;4995267;28;20026;-68
2022/05/04 09:02:47;;;;;;;14.63;8.20;;;;;;;;;;4999712;28;20038;-68
2022/05/04 09:05:23;;;;;;;19.48;8.00;;;;;;;;;;5013945;28;20045;-68
2022/05/04 09:07:53;;;;;;;14.20;8.13;;;;;;;;;;5014519;28;20065;-68
2022/05/04 09:10:24;;;;;;;16.23;8.60;;;;;;;;;;5013748;28;20092;-69
2022/05/04 09:12:52;;;;;;;18.33;8.85;;;;;;;;;;5013584;28;20429;-68
2022/05/04 09:15:29;;;;;;;17.38;8.13;;;;;;;;;;5012950;28;20037;-67
2022/05/04 09:18:02;;;;;;;16.90;8.75;;;;;;;;;;5014147;28;20092;-67
2022/05/04 09:20:47;;;;;;;20.60;8.52;;;;;;;;;;5014886;28;20037;-67
2022/05/04 09:23:18;;;;;;;16.15;8.95;;;;;;;;;;4997201;28;20034;-68
2022/05/04 09:25:43;;;;;;;15.55;8.93;;;;;;;;;;5007716;28;20034;-68
2022/05/04 09:28:13;;;;;;;20.92;9.13;;;;;;;;;;5011060;28;20121;-69
2022/05/04 09:30:52;;;;;;;13.73;8.40;;;;;;;;;;5013784;28;20025;-68
2022/05/04 09:33:23;;;;;;;15.60;8.90;;;;;;;;;;5005200;28;20161;-68
2022/05/04 09:35:49;;;;;;;15.90;8.88;;;;;;;;;;4994713;28;20084;-68
2022/05/04 09:46:42;;;;;;;16.65;8.95;;;;;;;;;;5012765;28;20300;-68
2022/05/04 09:49:12;;;;;;;13.88;8.32;;;;;;;;;;5013288;28;20034;-68
2022/05/04 09:51:39;;;;;;;16.45;8.50;;;;;;;;;;5013006;28;20041;-67
2022/05/04 09:54:13;;;;;;;13.10;8.30;;;;;;;;;;4997526;28;20074;-67
2022/05/04 09:56:38;;;;;;;16.33;8.63;;;;;;;;;;4993931;28;20474;-68
2022/05/04 09:59:05;;;;;;;14.60;8.25;;;;;;;;;;4993064;28;20038;-67
2022/05/04 10:01:32;;;;;;;18.02;8.35;;;;;;;;;;4976891;28;20085;-67
2022/05/04 10:04:00;;;;;;;19.17;8.75;;;;;;;;;;5009443;28;20038;-67
2022/05/04 10:06:26;;;;;;;20.30;8.70;;;;;;;;;;5012904;28;20030;-67
2022/05/04 10:08:51;;;;;;;13.60;7.97;;;;;;;;;;5013605;28;20148;-67
2022/05/04 10:11:18;;;;;;;14.13;7.80;;;;;;;;;;5011630;28;20026;-68
2022/05/04 10:13:44;;;;;;;15.57;8.05;;;;;;;;;;5012314;28;20117;-68
2022/05/04 10:16:11;;;;;;;14.40;8.52;;;;;;;;;;4994922;28;20356;-68
2022/05/04 10:18:38;;;;;;;15.55;8.38;;;;;;;;;;5012946;28;20040;-67
2022/05/04 10:21:06;;;;;;;14.40;8.50;;;;;;;;;;5012150;28;20030;-68
2022/05/04 10:23:37;;;;;;;14.35;8.75;;;;;;;;;;5010607;28;20049;-68
2022/05/04 10:26:04;;;;;;;;;;;;;;;;;;5012721;28;20036;-67
2022/05/04 10:28:36;;;;;;;17.90;9.95;;;;;;;;;;5013058;28;19917;-68
2022/05/04 10:31:07;;;;;;;16.67;10.05;;;;;;;;;;5012115;28;20045;-67
2022/05/04 10:33:35;;;;;;;14.25;9.07;;;;;;;;;;5012313;28;20038;-67
2022/05/04 10:36:18;;;;;;;20.50;10.32;;;;;;;;;;5012205;28;20041;-67
2022/05/04 10:38:45;;;;;;;23.38;11.20;;;;;;;;;;5008519;28;20045;-67
2022/05/04 10:41:12;;;;;;;17.80;9.93;;;;;;;;;;5011115;28;20402;-68
2022/05/04 10:43:47;;;;;;;17.45;10.43;;;;;;;;;;5011092;28;20045;-68
2022/05/04 10:46:18;;;;;;;20.23;11.52;;;;;;;;;;5012040;28;20069;-68
2022/05/04 10:49:05;;;;;;;18.83;11.50;;;;;;;;;;5012818;28;20034;-68
2022/05/04 10:51:33;;;;;;;17.63;10.50;;;;;;;;;;5012679;28;20065;-68
2022/05/04 10:54:07;;;;;;;18.25;10.18;;;;;;;;;;5010032;28;20504;-68
2022/05/04 10:56:40;;;;;;;19.20;10.88;;;;;;;;;;5011503;28;20033;-67
2022/05/04 10:59:05;;;;;;;19.48;11.20;;;;;;;;;;5011900;28;20030;-67
2022/05/04 11:01:36;;;;;;;18.40;10.98;;;;;;;;;;5012823;28;20348;-68
2022/05/04 11:04:11;;;;;;;16.55;10.80;;;;;;;;;;5011639;28;20034;-67
2022/05/04 11:06:55;;;;;;;21.77;11.27;;;;;;;;;;5011839;28;20038;-69
2022/05/04 11:09:25;;;;;;;19.75;10.93;;;;;;;;;;5011722;28;20029;-69
2022/05/04 11:11:54;;;;;;;16.85;11.38;;;;;;;;;;5011684;28;20497;-69
2022/05/04 11:14:22;;;;;;;17.85;11.07;;;;;;;;;;5011456;28;20673;-69
2022/05/04 11:16:50;;;;;;;22.48;10.88;;;;;;;;;;4992365;28;20037;-67
2022/05/04 11:19:16;;;;;;;20.65;10.35;;;;;;;;;;5010807;28;20037;-67
2022/05/04 11:21:42;;;;;;;16.48;9.57;;;;;;;;;;5012242;28;20026;-67
2022/05/04 11:24:10;;;;;;;19.48;10.10;;;;;;;;;;5011352;28;20034;-67
2022/05/04 11:26:40;;;;;;;21.58;10.40;;;;;;;;;;5004439;28;20175;-69
2022/05/04 11:29:08;;;;;;;17.88;10.93;;;;;;;;;;5011577;28;20052;-67
2022/05/04 11:31:33;;;;;;;19.33;10.55;;;;;;;;;;5012288;28;20045;-67
2022/05/04 11:33:59;;;;;;;16.77;10.15;;;;;;;;;;5011325;28;20038;-67
2022/05/04 11:36:24;;;;;;;15.52;11.00;;;;;;;;;;5006803;28;20042;-67
2022/05/04 11:38:50;;;;;;;17.52;11.40;;;;;;;;;;5012140;28;20033;-68
2022/05/04 11:41:16;;;;;;;15.73;10.43;;;;;;;;;;5010217;28;20459;-67
2022/05/04 11:43:42;;;;;;;14.82;9.93;;;;;;;;;;5008438;28;20033;-67
2022/05/04 11:46:10;;;;;;;18.40;10.95;;;;;;;;;;5010514;28;20073;-67
2022/05/04 11:48:56;;;;;;;16.30;10.68;;;;;;;;;;5012066;28;20040;-68
2022/05/04 11:51:22;;;;;;;18.55;10.43;;;;;;;;;;5012662;28;20065;-68
2022/05/04 11:53:47;;;;;;;17.08;10.75;;;;;;;;;;5014348;28;20068;-67
2022/05/04 11:56:13;;;;;;;18.45;10.55;;;;;;;;;;5010282;28;20068;-69
2022/05/04 11:58:38;;;;;;;17.98;9.95;;;;;;;;;;5016330;28;20038;-68
2022/05/04 12:01:06;;;;;;;13.57;9.43;;;;;;;;;;5015600;28;20030;-68
2022/05/04 12:03:34;;;;;;;17.27;9.52;;;;;;;;;;5015774;28;20116;-68
2022/05/04 12:06:02;;;;;;;14.85;9.15;;;;;;;;;;5013691;28;20041;-68
2022/05/04 12:08:28;;;;;;;18.33;9.32;;;;;;;;;;5015698;28;20057;-69
2022/05/04 12:10:54;;;;;;;16.02;10.02;;;;;;;;;;5014460;28;20026;-69
2022/05/04 12:13:24;;;;;;;18.10;9.77;;;;;;;;;;5013673;28;20379;-69
2022/05/04 12:15:53;;;;;;;14.80;9.77;;;;;;;;;;4999671;28;20034;-68
2022/05/04 12:18:18;;;;;;;15.63;9.65;;;;;;;;;;4995143;28;20053;-68
2022/05/04 12:20:45;;;;;;;16.65;9.90;;;;;;;;;;4995749;28;20452;-68
2022/05/04 12:23:12;;;;;;;16.15;9.43;;;;;;;;;;4995078;28;20053;-68
2022/05/04 12:25:39;;;;;;;15.98;9.57;;;;;;;;;;4996724;28;20462;-69
2022/05/04 12:28:05;;;;;;;14.10;9.60;;;;;;;;;;5010568;28;20038;-68
2022/05/04 12:33:15;;;;;;;17.05;9.88;;;;;;;;;;5014635;28;20501;-68
2022/05/04 12:35:46;;;;;;;20.48;9.77;;;;;;;;;;4995861;28;20034;-69
2022/05/04 12:38:15;;;;;;;14.77;9.75;;;;;;;;;;5013876;28;20498;-68
2022/05/04 12:40:41;;;;;;;14.32;9.32;;;;;;;;;;5015164;28;20529;-68
2022/05/04 12:43:07;;;;;;;15.27;9.65;;;;;;;;;;5011943;28;20109;-68
2022/05/04 12:45:34;;;;;;;13.45;9.25;;;;;;;;;;5015043;28;20052;-69
2022/05/04 12:48:00;;;;;;;15.43;9.80;;;;;;;;;;5013409;28;20034;-69
2022/05/04 12:50:28;;;;;;;13.70;9.20;;;;;;;;;;5014335;28;20109;-69
2022/05/04 12:52:55;;;;;;;14.43;9.10;;;;;;;;;;5013922;28;20101;-67
2022/05/04 12:56:45;;;;;;;14.00;9.38;;;;;;;;;;4996530;28;20105;-67
2022/05/04 12:58:06;;;;;;;17.02;9.35;;;;;;;;;;5014302;28;20084;-67
2022/05/04 13:00:33;;;;;;;12.77;8.50;;;;;;;;;;4996904;28;20030;-68
2022/05/04 13:02:59;;;;;;;14.05;8.10;;;;;;;;;;5012091;28;20041;-68
2022/05/04 13:05:24;;;;;;;14.27;8.68;;;;;;;;;;5013136;28;20088;-68
2022/05/04 13:07:50;;;;;;;13.23;6.97;;;;;;;;;;5013950;28;20045;-68
2022/05/04 13:10:15;;;;;;;12.40;7.22;;;;;;;;;;4998654;28;20039;-67
2022/05/04 13:12:41;;;;;;;13.02;7.38;;;;;;;;;;4996954;28;20127;-69
2022/05/04 13:15:06;;;;;;;11.15;6.18;;;;;;;;;;5013978;28;20029;-67
2022/05/04 13:17:32;;;;;;;11.57;5.85;;;;;;;;;;4996113;28;20363;-67
2022/05/04 13:19:57;;;;;;;10.20;5.60;;;;;;;;;;5014496;28;20034;-69
2022/05/04 13:22:23;;;;;;;13.27;5.93;;;;;;;;;;5010479;28;20041;-69
2022/05/04 13:24:48;;;;;;;9.00;5.82;;;;;;;;;;5013136;28;20053;-69
2022/05/04 13:27:14;;;;;;;10.68;5.00;;;;;;;;;;4995925;28;20034;-69
2022/05/04 13:29:41;;;;;;;8.52;4.22;;;;;;;;;;5014339;28;20029;-69
2022/05/04 13:32:08;;;;;;;9.02;4.57;;;;;;;;;;5014194;28;20026;-69
2022/05/04 13:34:33;;;;;;;11.70;4.60;;;;;;;;;;5012446;28;20065;-68
2022/05/04 13:36:58;;;;;;;8.93;4.55;;;;;;;;;;5013365;28;20504;-68
2022/05/04 13:39:24;;;;;;;8.25;4.05;;;;;;;;;;5007847;28;20026;-68
2022/05/04 13:41:51;;;;;;;9.25;4.40;;;;;;;;;;5013995;28;20180;-68
2022/05/04 13:44:16;;;;;;;9.60;4.20;;;;;;;;;;5013009;28;20398;-68
2022/05/04 13:46:42;;;;;;;8.48;3.88;;;;;;;;;;5014030;28;20450;-68
2022/05/04 13:49:07;;;;;;;8.10;4.00;;;;;;;;;;5012819;28;20041;-68
2022/05/04 13:54:16;;;;;;;7.53;3.55;;;;;;;;;;5011156;28;20049;-68
2022/05/04 13:56:42;;;;;;;8.82;3.60;;;;;;;;;;5013849;28;20029;-68
2022/05/04 13:59:08;;;;;;;6.47;3.25;;;;;;;;;;5012856;28;20034;-69
2022/05/04 14:01:34;;;;;;;6.55;3.53;;;;;;;;;;5011649;28;20030;-68
2022/05/04 14:04:00;;;;;;;6.53;3.40;;;;;;;;;;4996137;28;20034;-68
2022/05/04 14:06:25;;;;;;;8.02;2.80;;;;;;;;;;5012742;28;20026;-68
2022/05/04 14:08:51;;;;;;;7.93;3.88;;;;;;;;;;5012697;28;20040;-68
2022/05/04 14:11:16;;;;;;;9.40;3.90;;;;;;;;;;5011357;28;20471;-68
2022/05/04 14:13:42;;;;;;;10.20;3.80;;;;;;;;;;5013210;28;20038;-68
2022/05/04 14:16:09;;;;;;;7.93;3.80;;;;;;;;;;5012359;28;20045;-68
2022/05/04 14:18:35;;;;;;;7.47;3.95;;;;;;;;;;5010705;28;20040;-68
2022/05/04 14:21:02;;;;;;;8.27;3.97;;;;;;;;;;5011847;28;20409;-68
2022/05/04 14:23:28;;;;;;;10.63;3.78;;;;;;;;;;5012501;28;20030;-68
2022/05/04 14:25:53;;;;;;;7.65;3.50;;;;;;;;;;4995582;28;20029;-68
2022/05/04 14:28:19;;;;;;;8.23;3.33;;;;;;;;;;5012415;28;20060;-68
2022/05/04 14:30:45;;;;;;;7.70;3.80;;;;;;;;;;5012208;28;20025;-68
2022/05/04 14:33:11;;;;;;;8.93;3.70;;;;;;;;;;5011920;28;20042;-68
2022/05/04 14:35:36;;;;;;;14.15;4.60;;;;;;;;;;5011488;28;20030;-68
2022/05/04 14:38:03;;;;;;;8.07;3.80;;;;;;;;;;5010135;28;20036;-68
2022/05/04 14:40:29;;;;;;;9.27;4.38;;;;;;;;;;4992160;28;20033;-68
2022/05/04 14:42:57;;;;;;;9.02;4.22;;;;;;;;;;5012156;28;20046;-68
2022/05/04 14:45:23;;;;;;;8.52;3.88;;;;;;;;;;5010801;28;20036;-68
2022/05/04 14:47:50;;;;;;;9.32;3.90;;;;;;;;;;5010788;28;20108;-67
2022/05/04 14:50:16;;;;;;;8.07;3.95;;;;;;;;;;4992573;28;20041;-67
2022/05/04 14:52:41;;;;;;;9.18;3.90;;;;;;;;;;5011362;28;20030;-69
2022/05/04 14:55:07;;;;;;;10.40;4.43;;;;;;;;;;5012556;28;20104;-69
2022/05/04 14:57:33;;;;;;;7.63;4.32;;;;;;;;;;5011647;28;20486;-68
2022/05/04 14:59:58;;;;;;;8.85;4.40;;;;;;;;;;5011166;28;20084;-69
2022/05/04 15:02:24;;;;;;;8.70;4.40;;;;;;;;;;5011588;28;20030;-69
2022/05/04 15:05:02;;;;;;;10.50;4.50;;;;;;;;;;5012483;28;20038;-70